Time;durP1;ratioP1;P1;durP2;ratioP2;P2;SDS_P1;SDS_P2;PMS_P1;PMS_P2;Temp;Humidity;BMP_temperature;BMP_pressure;BME280_temperature;BME280_humidity;BME280_pressure;Samples;Min_cycle;Max_cycle;Signal;HPM_P1;HPM_P2
2023/01/04 00:00:16;;;;;;;7.55;2.97;;;;;;;;;;5085808;28;20412;-75
2023/01/04 00:02:42;;;;;;;9.83;4.20;;;;;;;;;;5109994;28;20423;-74
2023/01/04 00:05:08;;;;;;;8.25;3.22;;;;;;;;;;5064455;28;20494;-74
2023/01/04 00:07:34;;;;;;;9.55;3.13;;;;;;;;;;5092641;28;20425;-74
2023/01/04 00:10:00;;;;;;;11.53;3.90;;;;;;;;;;5091087;28;20409;-74
2023/01/04 00:12:26;;;;;;;8.82;3.58;;;;;;;;;;5084142;28;22349;-74
2023/01/04 00:14:52;;;;;;;9.95;3.38;;;;;;;;;;5058691;28;20419;-74
2023/01/04 00:17:18;;;;;;;11.10;3.42;;;;;;;;;;5082382;28;20509;-74
2023/01/04 00:19:44;;;;;;;10.95;3.50;;;;;;;;;;5076075;28;20402;-74
2023/01/04 00:22:10;;;;;;;7.18;3.38;;;;;;;;;;5079507;28;20412;-74
2023/01/04 00:24:36;;;;;;;11.90;4.15;;;;;;;;;;5097139;28;20547;-74
2023/01/04 00:27:03;;;;;;;10.32;4.25;;;;;;;;;;5089556;28;20422;-75
2023/01/04 00:29:29;;;;;;;8.70;4.05;;;;;;;;;;5082091;28;20409;-75
2023/01/04 00:31:55;;;;;;;12.18;3.90;;;;;;;;;;5088208;28;20417;-75
2023/01/04 00:34:21;;;;;;;9.98;3.70;;;;;;;;;;5074325;28;20410;-75
2023/01/04 00:36:47;;;;;;;9.30;4.20;;;;;;;;;;5076019;28;20444;-75
2023/01/04 00:39:14;;;;;;;11.70;3.83;;;;;;;;;;5091304;28;20418;-75
2023/01/04 00:43:24;;;;;;;11.87;3.70;;;;;;;;;;5119676;27;20381;-74
2023/01/04 00:45:50;;;;;;;8.50;3.72;;;;;;;;;;5153004;27;20424;-74
2023/01/04 00:48:16;;;;;;;8.55;3.83;;;;;;;;;;5158631;27;20413;-73
2023/01/04 00:50:48;;;;;;;11.67;4.33;;;;;;;;;;5155666;27;20436;-73
2023/01/04 00:53:15;;;;;;;11.60;4.20;;;;;;;;;;5114422;28;20425;-74
2023/01/04 00:55:41;;;;;;;10.40;3.95;;;;;;;;;;5125134;27;20417;-74
2023/01/04 00:58:07;;;;;;;9.85;4.05;;;;;;;;;;5124060;28;20419;-74
2023/01/04 01:00:34;;;;;;;8.15;3.90;;;;;;;;;;5108201;28;20409;-74
2023/01/04 01:03:00;;;;;;;8.70;4.30;;;;;;;;;;5107984;28;20417;-74
2023/01/04 01:05:26;;;;;;;9.82;4.10;;;;;;;;;;5111631;28;20519;-74
2023/01/04 01:07:52;;;;;;;10.57;4.50;;;;;;;;;;5118369;27;20458;-75
2023/01/04 01:10:18;;;;;;;9.98;4.53;;;;;;;;;;5096327;28;20421;-75
2023/01/04 01:12:47;;;;;;;8.95;4.18;;;;;;;;;;5121175;27;20933;-75
2023/01/04 01:15:13;;;;;;;10.05;4.45;;;;;;;;;;5123333;28;20428;-75
2023/01/04 01:17:39;;;;;;;9.57;4.43;;;;;;;;;;5112538;28;20820;-75
2023/01/04 01:20:05;;;;;;;10.65;4.80;;;;;;;;;;5127048;27;20415;-75
2023/01/04 01:22:34;;;;;;;11.40;4.20;;;8.50;99.90;;;;;;5125082;27;20421;-75
2023/01/04 01:25:00;;;;;;;7.78;4.18;;;;;;;;;;5124394;27;20419;-75
2023/01/04 01:27:27;;;;;;;8.77;4.40;;;;;;;;;;5105085;28;20446;-75
2023/01/04 01:32:22;;;;;;;9.32;4.55;;;;;;;;;;5129055;27;20368;-75
2023/01/04 01:34:48;;;;;;;8.07;4.88;;;;;;;;;;5104277;28;20415;-75
2023/01/04 01:37:15;;;;;;;10.27;4.85;;;;;;;;;;5123329;27;20413;-75
2023/01/04 01:39:41;;;;;;;9.65;4.63;;;;;;;;;;5104681;28;20499;-75
2023/01/04 01:42:12;;;;;;;8.67;4.27;;;;;;;;;;5103436;28;20482;-75
2023/01/04 01:44:41;;;;;;;10.63;4.72;;;;;;;;;;5101390;28;20931;-75
2023/01/04 01:47:18;;;;;;;10.13;4.70;;;;;;;;;;5128480;28;20400;-75
2023/01/04 01:49:46;;;;;;;10.02;4.68;;;;;;;;;;5093936;28;20878;-75
2023/01/04 01:52:16;;;;;;;6.93;4.00;;;;;;;;;;5104100;28;20516;-75
2023/01/04 01:54:52;;;;;;;10.43;4.30;;;;;;;;;;5107546;28;20478;-75
2023/01/04 01:57:21;;;;;;;8.82;4.03;;;;;;;;;;5106867;28;20405;-75
2023/01/04 01:59:48;;;;;;;7.22;4.43;;;;;;;;;;5117415;28;20421;-75
2023/01/04 02:02:14;;;;;;;8.85;3.88;;;;;;;;;;5106460;28;21042;-75
2023/01/04 02:04:42;;;;;;;9.82;4.32;;;;;;;;;;5090214;28;20489;-76
2023/01/04 02:07:09;;;;;;;7.07;3.80;;;;;;;;;;5103689;28;20435;-76
2023/01/04 02:09:36;;;;;;;8.68;3.58;;;;;;;;;;5107603;28;20463;-75
2023/01/04 02:12:02;;;;;;;6.55;3.53;;;;;;;;;;5086255;28;20801;-75
2023/01/04 02:14:28;;;;;;;5.57;3.30;;;;;;;;;;5124571;27;20995;-75
2023/01/04 02:17:24;;;;;;;5.50;3.17;;;;;;;;;;5110808;28;20409;-76
2023/01/04 02:19:50;;;;;;;5.82;3.13;;;;;;;;;;5072472;28;20453;-76
2023/01/04 02:22:49;;;;;;;4.80;2.70;;;8.90;99.90;;;;;;5087833;28;20409;-75
2023/01/04 02:25:35;;;;;;;6.07;2.90;;;;;;;;;;5139582;27;20409;-75
2023/01/04 02:28:16;;;;;;;3.83;2.45;;;;;;;;;;5106883;28;20440;-75
2023/01/04 02:31:01;;;;;;;6.10;2.72;;;;;;;;;;5088143;28;20442;-76
2023/01/04 02:33:34;;;;;;;5.00;2.60;;;;;;;;;;5101120;28;20476;-76
2023/01/04 02:36:13;;;;;;;7.10;2.85;;;;;;;;;;5089788;28;20421;-76
2023/01/04 02:40:08;;;;;;;5.05;2.75;;;;;;;;;;5077493;28;20369;-75
2023/01/04 02:45:23;;;;;;;3.92;2.15;;;;;;;;;;5055247;28;20453;-75
2023/01/04 02:50:36;;;;;;;3.97;2.33;;;;;;;;;;5054115;28;20434;-75
2023/01/04 02:53:05;;;;;;;5.90;2.30;;;;;;;;;;4991446;28;20919;-76
2023/01/04 02:55:42;;;;;;;7.22;2.53;;;;;;;;;;5014217;28;20427;-75
2023/01/04 02:58:28;;;;;;;6.80;2.20;;;;;;;;;;5009643;28;20440;-75
2023/01/04 03:06:50;;;;;;;9.48;3.70;;;;;;;;;;5074669;28;20417;-75
2023/01/04 03:09:20;;;;;;;8.95;2.72;;;;;;;;;;5102486;28;20420;-75
2023/01/04 03:14:47;;;;;;;4.68;2.47;;;;;;;;;;5086033;28;20908;-75
2023/01/04 03:17:14;;;;;;;4.35;2.85;;;;;;;;;;5012468;28;20448;-75
2023/01/04 03:19:53;;;;;;;5.50;2.67;;;;;;;;;;5007316;28;20512;-75
2023/01/04 03:36:23;;;;;;;3.57;2.40;;;9.50;99.90;;;;;;5004428;28;20566;-74
2023/01/04 03:50:43;;;;;;;5.38;3.38;;;;;;;;;;5012719;28;20782;-74
2023/01/04 03:53:09;;;;;;;6.10;3.58;;;;;;;;;;4979791;28;20408;-74
2023/01/04 03:55:37;;;;;;;6.40;4.05;;;;;;;;;;4976789;28;20414;-74
2023/01/04 03:58:03;;;;;;;6.05;4.25;;;;;;;;;;5093208;28;20429;-74
2023/01/04 04:00:29;;;;;;;8.98;4.38;;;;;;;;;;5093403;28;20390;-74
2023/01/04 04:03:06;;;;;;;6.07;4.40;;;;;;;;;;5043943;28;20427;-75
2023/01/04 04:08:28;;;;;;;5.07;3.97;;;;;;;;;;5051499;28;20494;-74
2023/01/04 04:11:28;;;;;;;5.90;4.40;;;;;;;;;;4984149;28;20918;-74
2023/01/04 04:13:45;;;;;;;5.63;4.38;;;;;;;;;;5013733;28;20475;-74
2023/01/04 04:16:11;;;;;;;5.90;4.30;;;;;;;;;;5093166;28;20419;-74
2023/01/04 04:18:37;;;;;;;5.88;4.57;;;;;;;;;;5045855;28;20516;-74
2023/01/04 04:21:03;;;;;;;6.27;4.67;;;;;;;;;;5010177;28;20400;-74
2023/01/04 04:23:29;;;;;;;6.07;4.55;;;;;;;;;;4967747;28;20481;-74
2023/01/04 04:25:55;;;;;;;6.25;4.40;;;;;;;;;;5014922;28;20497;-74
2023/01/04 04:28:22;;;;;;;6.10;4.33;;;;;;;;;;5092573;28;20437;-74
2023/01/04 04:30:51;;;;;;;5.40;4.25;;;;;;;;;;5005302;28;20914;-74
2023/01/04 04:33:17;;;;;;;6.57;5.00;;;;;;;;;;4980364;28;20430;-74
2023/01/04 04:35:43;;;;;;;6.22;5.18;;;;;;;;;;4973754;28;20433;-74
2023/01/04 04:38:09;;;;;;;7.00;5.32;;;;;;;;;;5002627;28;20496;-74
2023/01/04 04:43:22;;;;;;;7.32;5.00;;;;;;;;;;4988926;28;20425;-74
2023/01/04 04:45:48;;;;;;;7.47;5.40;;;;;;;;;;4993901;28;20505;-74
2023/01/04 04:48:14;;;;;;;7.90;5.53;;;;;;;;;;5072179;28;20429;-74
2023/01/04 04:50:40;;;;;;;6.97;5.53;;;;;;;;;;4969811;28;20877;-74
2023/01/04 04:53:06;;;;;;;7.30;5.57;;;;;;;;;;4985718;28;20474;-74
2023/01/04 04:55:32;;;;;;;6.90;5.32;;;;;;;;;;5086385;28;20406;-74
2023/01/04 04:57:58;;;;;;;8.70;5.75;;;;;;;;;;4988370;28;20436;-74
2023/01/04 05:00:24;;;;;;;7.90;4.90;;;;;;;;;;4977915;28;20433;-74
2023/01/04 05:02:51;;;;;;;8.40;5.55;;;;;;;;;;5091273;28;20406;-74
2023/01/04 05:05:17;;;;;;;6.30;4.80;;;;;;;;;;5091907;28;20400;-74
2023/01/04 05:07:43;;;;;;;6.55;5.10;;;;;;;;;;4991012;28;20427;-74
2023/01/04 05:10:09;;;;;;;6.95;5.10;;;;;;;;;;4971404;28;20486;-74
2023/01/04 05:15:20;;;;;;;9.40;5.43;;;;;;;;;;5009106;28;20748;-74
2023/01/04 05:17:46;;;;;;;7.07;5.10;;;;;;;;;;5005115;28;20427;-74
2023/01/04 05:20:12;;;;;;;7.63;5.53;;;;;;;;;;5024430;28;20761;-75
2023/01/04 05:22:39;;;;;;;7.63;5.10;;;;;;;;;;5002454;28;20431;-75
2023/01/04 05:25:07;;;;;;;6.90;5.07;;;;;;;;;;4988121;28;20785;-74
2023/01/04 05:27:33;;;;;;;6.15;4.70;;;;;;;;;;4970226;28;20463;-74
2023/01/04 05:32:43;;;;;;;8.07;5.20;;;;;;;;;;4987472;28;20433;-76
2023/01/04 05:35:10;;;;;;;7.53;4.70;;;;;;;;;;5000930;28;20421;-77
2023/01/04 05:37:36;;;;;;;8.30;4.90;;;;;;;;;;5009060;28;20445;-76
2023/01/04 05:40:02;;;;;;;6.60;4.65;;;;;;;;;;5031021;28;20422;-77
2023/01/04 05:42:28;;;;;;;7.27;5.10;;;;;;;;;;5026823;28;20512;-76
2023/01/04 05:44:55;;;;;;;8.00;4.88;;;;;;;;;;4972833;28;20497;-77
2023/01/04 05:47:23;;;;;;;6.35;4.43;;;;;;;;;;5060410;28;20406;-77
2023/01/04 05:49:49;;;;;;;8.07;4.45;;;;;;;;;;5061991;28;20421;-77
2023/01/04 05:52:15;;;;;;;7.28;4.53;;;;;;;;;;5005703;28;20436;-78
2023/01/04 05:54:41;;;;;;;8.93;4.88;;;;;;;;;;4990833;28;20429;-78
2023/01/04 05:57:08;;;;;;;6.43;4.72;;;;;;;;;;4986103;28;20434;-78
2023/01/04 05:59:34;;;;;;;7.03;4.77;;;;;;;;;;5062325;28;20430;-78
2023/01/04 06:02:00;;;;;;;8.60;4.65;;;;;;;;;;4977730;28;20513;-78
2023/01/04 06:04:26;;;;;;;7.68;4.95;;;;;;;;;;4963193;28;20422;-78
2023/01/04 06:06:52;;;;;;;8.07;4.50;;;;;;;;;;4976274;28;20454;-78
2023/01/04 06:09:18;;;;;;;10.82;5.40;;;;;;;;;;4972353;28;20418;-78
2023/01/04 06:11:44;;;;;;;10.60;4.97;;;;;;;;;;4987712;28;20895;-78
2023/01/04 06:14:10;;;;;;;10.33;5.17;;;;;;;;;;4971433;28;20410;-77
2023/01/04 06:16:37;;;;;;;9.25;5.10;;;;;;;;;;4983457;28;20442;-77
2023/01/04 06:19:03;;;;;;;8.65;4.80;;;;;;;;;;4985144;28;20427;-79
2023/01/04 06:21:29;;;;;;;11.27;5.57;;;;;;;;;;4980815;28;20427;-78
2023/01/04 06:23:55;;;;;;;8.88;4.75;;;;;;;;;;4952491;28;20434;-79
2023/01/04 06:26:21;;;;;;;11.40;5.05;;;;;;;;;;4954972;28;20450;-79
2023/01/04 06:28:47;;;;;;;13.23;5.70;;;;;;;;;;4984600;28;20923;-80
2023/01/04 06:31:13;;;;;;;8.02;5.22;;;;;;;;;;4990482;28;20426;-78
2023/01/04 06:33:39;;;;;;;13.02;5.90;;;;;;;;;;4967641;28;20476;-79
2023/01/04 06:36:06;;;;;;;9.15;4.70;;;;;;;;;;5009517;28;20417;-79
2023/01/04 06:38:33;;;;;;;11.88;5.80;;;;;;;;;;4999295;28;20426;-79
2023/01/04 06:40:59;;;;;;;11.45;5.72;;;;;;;;;;4973718;28;20436;-79
2023/01/04 06:43:25;;;;;;;8.10;5.68;;;;;;;;;;5029223;28;20960;-78
2023/01/04 06:45:52;;;;;;;8.95;5.05;;;;;;;;;;4966205;28;20419;-78
2023/01/04 06:48:18;;;;;;;13.97;5.50;;;;;;;;;;4990018;28;20421;-78
2023/01/04 06:50:44;;;;;;;7.50;5.30;;;;;;;;;;4957103;28;20436;-78
2023/01/04 06:53:10;;;;;;;8.45;5.25;;;;;;;;;;5018311;28;20475;-77
2023/01/04 06:55:36;;;;;;;8.40;5.30;;;;;;;;;;4998625;28;20435;-77
2023/01/04 06:58:02;;;;;;;8.23;5.57;;;;;;;;;;4972019;28;20438;-76
2023/01/04 07:00:28;;;;;;;10.00;6.10;;;;;;;;;;4973059;28;20419;-77
2023/01/04 07:02:54;;;;;;;9.95;6.20;;;;;;;;;;4979512;28;20424;-76
2023/01/04 07:05:20;;;;;;;10.32;5.93;;;;;;;;;;5015232;28;20470;-76
2023/01/04 07:07:46;;;;;;;8.85;6.05;;;;;;;;;;4991827;28;20425;-75
2023/01/04 07:10:13;;;;;;;8.68;5.90;;;;;;;;;;4976706;28;20427;-75
2023/01/04 07:12:39;;;;;;;10.57;6.55;;;;;;;;;;5001426;28;20420;-75
2023/01/04 07:15:05;;;;;;;11.38;6.30;;;;;;;;;;4989704;28;20412;-75
2023/01/04 07:17:31;;;;;;;9.77;6.53;;;;;;;;;;4978519;28;20801;-74
2023/01/04 07:19:57;;;;;;;8.77;6.15;;;;;;;;;;5021362;28;20800;-74
2023/01/04 07:22:23;;;;;;;10.85;6.20;;;;;;;;;;5033867;28;20428;-74
2023/01/04 07:24:50;;;;;;;9.38;6.15;;;;;;;;;;5016185;28;20880;-74
2023/01/04 07:27:16;;;;;;;9.90;6.17;;;;;;;;;;4990649;28;20481;-74
2023/01/04 07:29:43;;;;;;;9.32;5.90;;;;;;;;;;4989151;28;20427;-74
2023/01/04 07:32:09;;;;;;;10.23;6.70;;;11.80;99.90;;;;;;4988949;28;20468;-74
2023/01/04 07:34:36;;;;;;;8.68;5.60;;;;;;;;;;4992070;28;20434;-74
2023/01/04 07:37:03;;;;;;;9.45;5.85;;;;;;;;;;4988456;28;21086;-74
2023/01/04 07:39:29;;;;;;;10.82;5.50;;;;;;;;;;4990142;28;20743;-75
2023/01/04 07:41:55;;;;;;;20.13;7.30;;;;;;;;;;5014605;28;20430;-75
2023/01/04 07:44:24;;;;;;;10.70;6.10;;;;;;;;;;4976205;28;20417;-74
2023/01/04 07:46:50;;;;;;;10.55;5.40;;;;;;;;;;4974116;28;20439;-74
2023/01/04 07:49:17;;;;;;;9.50;5.50;;;;;;;;;;4969218;28;20519;-74
2023/01/04 07:51:43;;;;;;;10.85;5.30;;;;;;;;;;5037996;28;20414;-74
2023/01/04 07:54:10;;;;;;;10.43;5.05;;;;;;;;;;5078649;28;20409;-74
2023/01/04 07:56:36;;;;;;;10.50;6.07;;;;;;;;;;5043961;28;20422;-76
2023/01/04 07:59:05;;;;;;;12.25;6.05;;;;;;;;;;4974493;28;20470;-76
2023/01/04 08:01:31;;;;;;;11.98;6.45;;;;;;;;;;5026531;28;20423;-78
2023/01/04 08:03:57;;;;;;;9.80;5.63;;;;;;;;;;5016496;28;20441;-78
2023/01/04 08:06:23;;;;;;;14.45;6.07;;;;;;;;;;4980502;28;21058;-78
2023/01/04 08:08:49;;;;;;;9.13;5.32;;;;;;;;;;5037632;28;20921;-81
2023/01/04 08:11:16;;;;;;;10.27;5.60;;;;;;;;;;4999894;28;20915;-77
2023/01/04 08:13:43;;;;;;;9.50;6.25;;;;;;;;;;4999891;28;20979;-78
2023/01/04 08:16:19;;;;;;;13.60;7.03;;;10.90;99.90;;;;;;4986705;28;20468;-77
2023/01/04 08:18:47;;;;;;;11.73;6.90;;;;;;;;;;5040623;28;20428;-77
2023/01/04 08:21:13;;;;;;;11.45;6.78;;;;;;;;;;4982330;28;20548;-76
2023/01/04 08:23:39;;;;;;;10.95;6.75;;;;;;;;;;5016639;28;20796;-76
2023/01/04 08:26:07;;;;;;;10.73;6.00;;;11.20;99.90;;;;;;4994685;28;20428;-77
2023/01/04 08:28:34;;;;;;;12.57;5.90;;;;;;;;;;4986789;28;20439;-77
2023/01/04 08:31:05;;;;;;;12.55;5.60;;;11.10;99.90;;;;;;4979153;28;20927;-77
2023/01/04 08:33:31;;;;;;;10.73;5.45;;;;;;;;;;5001764;28;20425;-77
2023/01/04 08:36:10;;;;;;;10.75;5.32;;;11.70;99.90;;;;;;4975853;28;20766;-77
2023/01/04 08:38:36;;;;;;;12.55;4.57;;;;;;;;;;5017724;28;20433;-77
2023/01/04 08:41:03;;;;;;;8.80;4.53;;;;;;;;;;4997634;28;20441;-76
2023/01/04 08:43:29;;;;;;;9.65;4.47;;;;;;;;;;4998633;28;20439;-75
2023/01/04 08:45:55;;;;;;;9.43;4.32;;;;;;;;;;4996987;28;20937;-75
2023/01/04 08:48:21;;;;;;;8.88;4.38;;;;;;;;;;4962776;28;20490;-76
2023/01/04 08:50:47;;;;;;;8.15;3.70;;;;;;;;;;4957449;28;20431;-76
2023/01/04 08:53:13;;;;;;;7.68;4.22;;;;;;;;;;4978107;28;20445;-75
2023/01/04 08:55:39;;;;;;;8.40;3.80;;;;;;;;;;4995583;28;20429;-76
2023/01/04 08:58:06;;;;;;;9.15;4.00;;;;;;;;;;4987294;28;20426;-76
2023/01/04 09:00:32;;;;;;;5.43;3.35;;;;;;;;;;4986140;28;20420;-76
2023/01/04 09:02:58;;;;;;;6.63;3.53;;;;;;;;;;5023653;28;20477;-76
2023/01/04 09:05:24;;;;;;;7.40;3.50;;;;;;;;;;5049163;28;20418;-76
2023/01/04 09:07:51;;;;;;;7.90;3.95;;;;;;;;;;4964826;28;20968;-76
2023/01/04 09:10:17;;;;;;;8.25;3.60;;;;;;;;;;4968347;28;20515;-76
2023/01/04 09:12:44;;;;;;;7.80;3.60;;;;;;;;;;4975533;28;20432;-76
2023/01/04 09:15:10;;;;;;;6.93;3.90;;;;;;;;;;4990118;28;20418;-76
2023/01/04 09:17:37;;;;;;;8.00;4.05;;;;;;;;;;5014802;28;20413;-76
2023/01/04 09:20:03;;;;;;;8.35;4.00;;;;;;;;;;4985649;28;20434;-76
2023/01/04 09:22:30;;;;;;;7.00;3.95;;;;;;;;;;4991029;28;20446;-76
2023/01/04 09:24:56;;;;;;;0.10;0.10;;;;;;;;;;5009338;28;20437;-76
2023/01/04 09:27:22;;;;;;;0.20;0.10;;;;;;;;;;5019059;28;20426;-77
2023/01/04 09:29:49;;;;;;;0.00;0.00;;;;;;;;;;4975527;28;20411;-76
2023/01/04 09:32:15;;;;;;;0.20;0.20;;;;;;;;;;4972249;28;20453;-76
2023/01/04 09:34:41;;;;;;;0.20;0.20;;;;;;;;;;5006064;28;20425;-76
2023/01/04 09:37:08;;;;;;;0.20;0.20;;;;;;;;;;5000282;28;20433;-76
2023/01/04 09:39:34;;;;;;;0.10;0.10;;;;;;;;;;4975805;28;20434;-75
2023/01/04 09:42:04;;;;;;;0.28;0.28;;;;;;;;;;5046905;28;20433;-77
2023/01/04 09:44:33;;;;;;;0.20;0.20;;;;;;;;;;5036634;28;20410;-76
2023/01/04 09:47:05;;;;;;;0.80;0.60;;;;;;;;;;5042206;28;20405;-76
2023/01/04 09:49:37;;;;;;;0.20;0.20;;;;;;;;;;5001399;28;20477;-76
2023/01/04 09:52:06;;;;;;;0.47;0.47;;;;;;;;;;5030072;28;20418;-75
2023/01/04 09:54:53;;;;;;;4.60;0.60;;;;;;;;;;4996566;28;20417;-76
2023/01/04 09:57:30;;;;;;;0.08;0.08;;;;;;;;;;4998480;28;20445;-75
2023/01/04 10:00:02;;;;;;;0.07;0.07;;;;;;;;;;5009943;28;20417;-76
2023/01/04 10:02:47;;;;;;;0.10;0.10;;;;;;;;;;5046452;28;20420;-76
2023/01/04 10:05:25;;;;;;;0.17;0.17;;;;;;;;;;5011672;28;21103;-76
2023/01/04 10:07:51;;;;;;;0.10;0.10;;;;;;;;;;5059118;28;20433;-75
2023/01/04 10:10:33;;;;;;;0.00;0.00;;;11.40;99.90;;;;;;5068346;28;20417;-76
2023/01/04 10:13:05;;;;;;;0.15;0.15;;;;;;;;;;4996303;28;20790;-76
2023/01/04 10:15:34;;;;;;;0.20;0.20;;;;;;;;;;5002964;28;20586;-75
2023/01/04 10:18:16;;;;;;;0.68;0.68;;;;;;;;;;4999974;28;20425;-76
2023/01/04 10:20:54;;;;;;;0.20;0.20;;;;;;;;;;4998244;28;20467;-76
2023/01/04 10:23:23;;;;;;;0.00;0.00;;;;;;;;;;4996149;28;20430;-76
2023/01/04 10:25:55;;;;;;;0.25;0.20;;;;;;;;;;4973561;28;20419;-76
2023/01/04 10:28:41;;;;;;;0.10;0.10;;;;;;;;;;4987076;28;20465;-76
2023/01/04 10:31:26;;;;;;;1.60;0.10;;;11.20;99.90;;;;;;5059660;28;20426;-75
2023/01/04 10:34:14;;;;;;;0.60;0.20;;;11.70;99.90;;;;;;4969816;28;20426;-75
2023/01/04 10:36:40;;;;;;;0.10;0.10;;;;;;;;;;4984440;28;20429;-76
2023/01/04 10:39:13;;;;;;;0.15;0.15;;;;;;;;;;5009100;28;20444;-76
2023/01/04 10:41:42;;;;;;;0.40;0.40;;;;;;;;;;4987998;28;20429;-76
2023/01/04 10:44:08;;;;;;;0.30;0.30;;;;;;;;;;4993649;28;20493;-77
2023/01/04 10:46:43;;;;;;;0.20;0.20;;;;;;;;;;5038993;28;20450;-75
2023/01/04 10:49:48;;;;;;;0.38;0.38;;;11.50;99.90;;;;;;5010452;28;20511;-76
2023/01/04 10:52:19;;;;;;;0.30;0.30;;;11.80;99.90;;;;;;5028865;28;20442;-77
2023/01/04 10:54:57;;;;;;;0.50;0.45;;;;;;;;;;5007617;28;20422;-77
2023/01/04 10:57:31;;;;;;;3.80;2.30;;;;;;;;;;5012093;28;20409;-77
2023/01/04 11:00:02;;;;;;;5.70;0.30;;;;;;;;;;4972187;28;20428;-76
2023/01/04 11:02:50;;;;;;;1.40;0.80;;;;;;;;;;4988842;28;20453;-76
2023/01/04 11:05:30;;;;;;;0.90;0.70;;;;;;;;;;4988649;28;20505;-76
2023/01/04 11:08:02;;;;;;;2.60;0.85;;;;;;;;;;4983381;28;20928;-77
2023/01/04 11:10:47;;;;;;;1.70;0.82;;;;;;;;;;4957702;28;20404;-77
2023/01/04 11:13:13;;;;;;;0.45;0.45;;;;;;;;;;4978928;28;20426;-77
2023/01/04 11:15:41;;;;;;;1.67;0.68;;;;;;;;;;5050210;28;20426;-76
2023/01/04 11:18:08;;;;;;;0.70;0.30;;;;;;;;;;4993553;28;20422;-76
2023/01/04 11:20:35;;;;;;;0.20;0.20;;;;;;;;;;4979923;28;20468;-77
2023/01/04 11:23:03;;;;;;;0.47;0.47;;;;;;;;;;4997634;28;20928;-77
2023/01/04 11:25:32;;;;;;;0.50;0.50;;;;;;;;;;5020291;28;20501;-76
2023/01/04 11:28:20;;;;;;;6.80;0.60;;;11.80;99.90;;;;;;5014204;28;20426;-77
2023/01/04 11:30:46;;;;;;;1.00;0.30;;;;;;;;;;4982146;28;20421;-76
2023/01/04 11:33:14;;;;;;;0.80;0.60;;;;;;;;;;5010331;28;20442;-76
2023/01/04 11:35:47;;;;;;;1.40;0.80;;;;;;;;;;4996497;28;20417;-76
2023/01/04 11:38:16;;;;;;;3.40;1.80;;;;;;;;;;5016218;28;20450;-76
2023/01/04 11:40:53;;;;;;;0.30;0.30;;;;;;;;;;5036457;28;20430;-76
2023/01/04 11:43:20;;;;;;;0.30;0.30;;;;;;;;;;4999244;28;20929;-77
2023/01/04 11:45:54;;;;;;;0.30;0.30;;;;;;;;;;5038103;28;20417;-76
2023/01/04 11:48:37;;;;;;;8.95;2.55;;;11.60;99.90;;;;;;4998149;28;20432;-77
2023/01/04 11:51:04;;;;;;;34.03;6.97;;;;;;;;;;5005293;28;20499;-77
2023/01/04 11:53:30;;;;;;;37.83;7.30;;;;;;;;;;4990450;28;20406;-77
2023/01/04 11:56:17;;;;;;;33.90;7.53;;;11.80;99.90;;;;;;4980098;28;20908;-77
2023/01/04 11:59:03;;;;;;;31.85;7.28;;;12.00;99.90;;;;;;5020074;28;20418;-77
2023/01/04 12:01:29;;;;;;;36.20;6.72;;;;;;;;;;5002477;28;20458;-77
2023/01/04 12:03:56;;;;;;;34.92;7.10;;;;;;;;;;4969761;28;20449;-77
2023/01/04 12:06:30;;;;;;;32.55;6.72;;;;;;;;;;4977079;28;20430;-77
2023/01/04 12:08:56;;;;;;;32.17;6.57;;;;;;;;;;4970451;28;20781;-76
2023/01/04 12:11:25;;;;;;;26.63;6.20;;;;;;;;;;5003767;28;20434;-76
2023/01/04 12:13:51;;;;;;;26.30;6.28;;;;;;;;;;5054034;28;20754;-76
2023/01/04 12:16:36;;;;;;;24.50;6.20;;;;;;;;;;5020278;28;20417;-76
2023/01/04 12:19:06;;;;;;;22.42;5.68;;;;;;;;;;5021363;28;20470;-76
2023/01/04 12:21:36;;;;;;;23.90;5.78;;;;;;;;;;5012888;28;20413;-76
2023/01/04 12:24:05;;;;;;;21.33;5.87;;;;;;;;;;4956767;28;20491;-77
2023/01/04 12:26:32;;;;;;;23.38;5.80;;;;;;;;;;5062578;28;20933;-76
2023/01/04 12:29:17;;;;;;;22.30;6.15;;;;;;;;;;5085746;28;20398;-76
2023/01/04 12:31:43;;;;;;;17.17;4.63;;;;;;;;;;4968034;28;20427;-76
2023/01/04 12:34:15;;;;;;;20.63;4.43;;;;;;;;;;4992060;28;20465;-76
2023/01/04 12:36:44;;;;;;;16.92;4.30;;;;;;;;;;4973230;28;20434;-76
2023/01/04 12:39:13;;;;;;;15.85;4.50;;;;;;;;;;4988330;28;20431;-77
2023/01/04 12:41:39;;;;;;;13.57;3.90;;;;;;;;;;4986270;28;20454;-77
2023/01/04 12:44:24;;;;;;;14.93;4.05;;;;;;;;;;4991143;28;20424;-80
2023/01/04 12:49:39;;;;;;;12.38;3.65;;;;;;;;;;5043055;28;20515;-76
2023/01/04 12:52:05;;;;;;;13.98;3.55;;;;;;;;;;5037841;28;20430;-80
2023/01/04 12:54:43;;;;;;;16.37;3.77;;;;;;;;;;5001983;28;20455;-82
2023/01/04 12:57:10;;;;;;;14.38;3.30;;;;;;;;;;5039393;28;20505;-83
2023/01/04 12:59:37;;;;;;;13.50;3.30;;;;;;;;;;4988045;28;20507;-83
2023/01/04 13:02:12;;;;;;;17.50;3.72;;;;;;;;;;4988086;28;20465;-83
2023/01/04 13:04:40;;;;;;;21.07;4.00;;;;;;;;;;4997998;28;20528;-82
2023/01/04 13:07:13;;;;;;;16.00;4.10;;;;;;;;;;5006496;28;20414;-83
2023/01/04 13:09:41;;;;;;;17.88;4.03;;;;;;;;;;4993136;28;20434;-78
2023/01/04 13:12:20;;;;;;;23.02;4.43;;;;;;;;;;5045203;28;20846;-78
2023/01/04 13:14:48;;;;;;;23.95;4.63;;;;;;;;;;4966749;28;20428;-78
2023/01/04 13:17:19;;;;;;;22.50;5.05;;;;;;;;;;5002213;28;20479;-77
2023/01/04 13:19:46;;;;;;;22.20;4.70;;;;;;;;;;5002603;28;20517;-77
2023/01/04 13:22:18;;;;;;;19.55;4.57;;;;;;;;;;5034457;28;20417;-78
2023/01/04 13:24:44;;;;;;;25.98;5.07;;;12.00;99.90;;;;;;4983066;28;20464;-77
2023/01/04 13:27:15;;;;;;;27.40;5.35;;;;;;;;;;5018516;28;20839;-77
2023/01/04 13:29:42;;;;;;;27.83;5.25;;;;;;;;;;5009099;28;20754;-77
2023/01/04 13:32:12;;;;;;;26.42;4.80;;;;;;;;;;4975942;28;20477;-78
2023/01/04 13:34:38;;;;;;;23.58;5.45;;;;;;;;;;4985943;28;21053;-78
2023/01/04 13:37:05;;;;;;;24.23;4.93;;;;;;;;;;5030014;28;20425;-77
2023/01/04 13:39:31;;;;;;;23.42;5.30;;;;;;;;;;5051224;28;20433;-77
2023/01/04 13:41:57;;;;;;;28.00;5.95;;;;;;;;;;5012847;28;20453;-77
2023/01/04 13:44:23;;;;;;;28.85;5.22;;;;;;;;;;4992535;28;20550;-77
2023/01/04 13:46:51;;;;;;;25.92;5.57;;;;;;;;;;4999962;28;20786;-77
2023/01/04 13:49:17;;;;;;;29.88;5.88;;;;;;;;;;5022767;28;20414;-77
2023/01/04 13:51:43;;;;;;;25.43;5.73;;;;;;;;;;4991246;28;20426;-77
2023/01/04 13:54:19;;;;;;;29.73;5.13;;;;;;;;;;4999316;28;20784;-77
2023/01/04 13:56:46;;;;;;;23.30;5.17;;;;;;;;;;5027347;28;20418;-77
2023/01/04 13:59:12;;;;;;;25.27;5.20;;;;;;;;;;5006037;28;20434;-77
2023/01/04 14:01:47;;;;;;;28.02;5.70;;;;;;;;;;4988452;28;20411;-76
2023/01/04 14:04:13;;;;;;;28.45;5.68;;;;;;;;;;4987236;28;20423;-77
2023/01/04 14:06:43;;;;;;;25.15;5.38;;;;;;;;;;4972679;28;20454;-77
2023/01/04 14:09:09;;;;;;;23.20;5.33;;;;;;;;;;4971419;28;20446;-77
2023/01/04 14:14:38;;;;;;;27.10;5.00;;;;;;;;;;5072760;28;20422;-76
2023/01/04 14:17:23;;;;;;;20.57;4.83;;;;;;;;;;5002954;28;20430;-77
2023/01/04 14:19:51;;;;;;;23.25;5.13;;;;;;;;;;4966885;28;20524;-77
2023/01/04 14:22:20;;;;;;;22.35;4.72;;;;;;;;;;4976940;28;20850;-77
2023/01/04 14:24:47;;;;;;;22.10;4.50;;;;;;;;;;5013895;28;20929;-76
2023/01/04 14:27:32;;;;;;;21.83;4.38;;;;;;;;;;4999178;28;20430;-75
2023/01/04 14:29:58;;;;;;;25.92;5.25;;;;;;;;;;5027128;28;20422;-76
2023/01/04 14:32:25;;;;;;;21.58;5.00;;;;;;;;;;4985138;28;20435;-76
2023/01/04 14:34:52;;;;;;;21.27;4.70;;;;;;;;;;4963473;28;20433;-77
2023/01/04 14:37:18;;;;;;;23.30;4.95;;;;;;;;;;4990037;28;20430;-77
2023/01/04 14:39:45;;;;;;;21.00;4.88;;;;;;;;;;5013471;28;20768;-77
2023/01/04 14:42:24;;;;;;;24.30;4.57;;;;;;;;;;5048461;28;20406;-77
2023/01/04 14:44:51;;;;;;;23.40;4.38;;;;;;;;;;5000576;28;20477;-77
2023/01/04 14:47:17;;;;;;;22.55;4.97;;;;;;;;;;4977795;28;20915;-77
2023/01/04 14:49:43;;;;;;;22.95;4.47;;;;;;;;;;5004511;28;20463;-77
2023/01/04 14:52:11;;;;;;;23.45;4.97;;;;;;;;;;5029341;28;20436;-77
2023/01/04 14:54:38;;;;;;;21.38;4.90;;;;;;;;;;5047240;28;20769;-77
2023/01/04 14:57:05;;;;;;;22.65;5.05;;;;;;;;;;5038585;28;20471;-77
2023/01/04 14:59:31;;;;;;;23.48;4.97;;;;;;;;;;5001371;28;20508;-77
2023/01/04 15:01:57;;;;;;;23.85;4.53;;;;;;;;;;5027073;28;20485;-77
2023/01/04 15:04:26;;;;;;;23.23;5.05;;;;;;;;;;4996829;28;21015;-79
2023/01/04 15:06:55;;;;;;;25.45;5.13;;;;;;;;;;4973443;28;20458;-81
2023/01/04 15:09:22;;;;;;;29.13;5.40;;;;;;;;;;5027797;28;20441;-78
2023/01/04 15:11:48;;;;;;;26.90;5.28;;;;;;;;;;5001726;28;20416;-79
2023/01/04 15:14:14;;;;;;;23.75;4.80;;;;;;;;;;4972020;28;20446;-78
2023/01/04 15:16:40;;;;;;;26.30;4.53;;;;;;;;;;4987550;28;20430;-79
2023/01/04 15:19:06;;;;;;;22.67;4.50;;;;;;;;;;4979542;28;20559;-79
2023/01/04 15:21:33;;;;;;;24.08;5.50;;;;;;;;;;4978449;28;20454;-79
2023/01/04 15:23:59;;;;;;;23.50;5.40;;;;;;;;;;4986141;28;20558;-79
2023/01/04 15:26:25;;;;;;;22.52;4.57;;;;;;;;;;4987854;28;20406;-79
2023/01/04 15:28:51;;;;;;;17.73;4.72;;;;;;;;;;5082042;28;20905;-79
2023/01/04 15:31:17;;;;;;;24.60;5.05;;;;;;;;;;4983091;28;20516;-79
2023/01/04 15:33:43;;;;;;;21.97;4.83;;;;;;;;;;4975947;28;21161;-78
2023/01/04 15:36:15;;;;;;;19.00;4.35;;;;;;;;;;4998927;28;20444;-80
2023/01/04 15:38:41;;;;;;;23.38;4.93;;;;;;;;;;4986242;28;20436;-79
2023/01/04 15:42:57;;;;;;;19.45;4.75;;;;;;;;;;5022838;28;20421;-79
2023/01/04 15:43:58;;;;;;;19.15;4.82;;;;;;;;;;5049822;28;20918;-85